Time;durP1;ratioP1;P1;durP2;ratioP2;P2;SDS_P1;SDS_P2;PMS_P1;PMS_P2;Temp;Humidity;BMP_temperature;BMP_pressure;BME280_temperature;BME280_humidity;BME280_pressure;Samples;Min_cycle;Max_cycle;Signal;HPM_P1;HPM_P2
2023/04/01 00:02:21;;;;;;;6.60;3.42;;;10.80;99.90;;;;;;5011278;28;20038;-51
2023/04/01 00:05:11;;;;;;;4.50;2.20;;;10.80;99.90;;;;;;4999731;28;20033;-52
2023/04/01 00:07:57;;;;;;;7.03;2.80;;;10.80;99.90;;;;;;4994226;28;20034;-55
2023/04/01 00:10:43;;;;;;;6.57;2.70;;;10.80;99.90;;;;;;5012187;28;20129;-56
2023/04/01 00:13:29;;;;;;;6.28;2.80;;;10.70;99.90;;;;;;5013997;28;20487;-56
2023/04/01 00:16:15;;;;;;;4.13;2.50;;;10.70;99.90;;;;;;5013685;28;20038;-54
2023/04/01 00:19:02;;;;;;;4.93;2.60;;;10.70;99.90;;;;;;5013685;28;20026;-55
2023/04/01 00:21:48;;;;;;;5.80;2.47;;;10.80;99.90;;;;;;5011929;28;20038;-53
2023/04/01 00:24:34;;;;;;;3.95;2.40;;;10.70;99.90;;;;;;5013523;28;20030;-52
2023/04/01 00:27:20;;;;;;;3.40;2.50;;;10.80;99.90;;;;;;5011332;28;20629;-55
2023/04/01 00:30:07;;;;;;;4.22;2.50;;;10.80;99.90;;;;;;4993700;28;20026;-53
2023/04/01 00:32:53;;;;;;;4.22;2.40;;;10.80;99.90;;;;;;5003005;28;20033;-54
2023/04/01 00:35:40;;;;;;;3.55;2.47;;;10.80;99.90;;;;;;5011458;28;20519;-54
2023/04/01 00:38:26;;;;;;;5.85;2.70;;;10.80;99.90;;;;;;5011308;28;20388;-54
2023/04/01 00:41:14;;;;;;;4.88;2.42;;;10.80;99.90;;;;;;5010191;28;20041;-54
2023/04/01 00:44:22;;;;;;;6.18;2.40;;;10.80;99.90;;;;;;4991724;28;20046;-52
2023/04/01 00:47:08;;;;;;;8.23;3.10;;;10.80;99.90;;;;;;4996989;28;20038;-54
2023/04/01 00:49:55;;;;;;;5.90;2.75;;;10.80;99.90;;;;;;5012965;28;20029;-51
2023/04/01 00:52:41;;;;;;;4.68;2.95;;;10.80;99.90;;;;;;5010380;28;20056;-55
2023/04/01 00:55:30;;;;;;;5.75;3.17;;;10.70;99.90;;;;;;4997707;28;20482;-55
2023/04/01 00:58:20;;;;;;;3.35;2.40;;;10.70;99.90;;;;;;4979480;28;20031;-52
2023/04/01 01:01:08;;;;;;;5.15;2.35;;;10.70;99.90;;;;;;5007787;28;20041;-53
2023/04/01 01:03:54;;;;;;;9.05;3.05;;;10.70;99.90;;;;;;5014082;28;20410;-50
2023/04/01 01:06:58;;;;;;;4.40;2.95;;;10.70;99.90;;;;;;5012570;28;20065;-49
2023/04/01 01:09:56;;;;;;;6.32;2.85;;;10.70;99.90;;;;;;5011097;28;20026;-50
2023/04/01 01:12:48;;;;;;;4.53;2.50;;;10.70;99.90;;;;;;5012171;28;20014;-48
2023/04/01 01:15:46;;;;;;;7.38;2.88;;;10.70;99.90;;;;;;5011671;28;20037;-51
2023/04/01 01:18:56;;;;;;;8.07;2.70;;;10.60;99.90;;;;;;5012175;28;20038;-51
2023/04/01 01:22:07;;;;;;;4.40;2.50;;;10.60;99.90;;;;;;5011621;28;20494;-52
2023/04/01 01:25:25;;;;;;;9.38;3.00;;;10.60;99.90;;;;;;4992877;28;20035;-54
2023/04/01 01:28:24;;;;;;;4.60;2.40;;;10.60;99.90;;;;;;4998784;28;20176;-54
2023/04/01 01:31:35;;;;;;;4.45;2.30;;;10.60;99.90;;;;;;5010630;28;20509;-58
2023/04/01 01:34:45;;;;;;;4.90;2.50;;;10.60;99.90;;;;;;5010963;28;20105;-55
2023/04/01 01:37:32;;;;;;;7.05;2.55;;;10.60;99.90;;;;;;5011238;28;20109;-52
2023/04/01 01:40:19;;;;;;;5.53;2.65;;;10.70;99.90;;;;;;4993165;28;20062;-52
2023/04/01 01:43:09;;;;;;;4.13;2.25;;;10.60;99.90;;;;;;4996402;28;20084;-52
2023/04/01 01:46:01;;;;;;;6.22;2.90;;;10.60;99.90;;;;;;5010576;28;20022;-53
2023/04/01 01:48:48;;;;;;;4.90;2.80;;;10.60;99.90;;;;;;5011614;28;20407;-50
2023/04/01 01:51:34;;;;;;;4.22;2.25;;;10.60;99.90;;;;;;5011582;28;20022;-48
2023/04/01 01:54:20;;;;;;;6.15;2.90;;;10.60;99.90;;;;;;5010660;28;20030;-53
2023/04/01 01:57:09;;;;;;;4.85;2.63;;;10.60;99.90;;;;;;5010941;28;20105;-54
2023/04/01 02:00:01;;;;;;;7.82;2.80;;;10.60;99.90;;;;;;5011535;28;20029;-55
2023/04/01 02:02:48;;;;;;;6.70;2.75;;;10.70;99.90;;;;;;5011096;28;20030;-56
2023/04/01 02:05:35;;;;;;;5.45;2.70;;;10.60;99.90;;;;;;4994083;28;20518;-51
2023/04/01 02:08:27;;;;;;;7.80;2.67;;;10.60;99.90;;;;;;5000585;28;20045;-53
2023/04/01 02:11:17;;;;;;;8.93;2.60;;;10.60;99.90;;;;;;5030163;28;20025;-54
2023/04/01 02:14:27;;;;;;;4.68;2.55;;;10.60;99.90;;;;;;5015531;28;20030;-57
2023/04/01 02:17:26;;;;;;;3.35;2.40;;;10.60;99.90;;;;;;5010046;28;20026;-55
2023/04/01 02:20:21;;;;;;;4.63;2.42;;;10.60;99.90;;;;;;4985533;28;20038;-56
2023/04/01 02:23:08;;;;;;;3.95;2.20;;;10.60;99.90;;;;;;4996665;28;20076;-55
2023/04/01 02:25:55;;;;;;;5.10;2.72;;;10.60;99.90;;;;;;5010474;28;20108;-50
2023/04/01 02:28:42;;;;;;;3.78;2.38;;;10.60;99.90;;;;;;5009047;28;20391;-50
2023/04/01 02:31:29;;;;;;;6.32;2.67;;;10.60;99.90;;;;;;5009574;28;20406;-56
2023/04/01 02:34:15;;;;;;;3.97;2.15;;;10.60;99.90;;;;;;4991636;28;20035;-55
2023/04/01 02:37:01;;;;;;;5.65;2.85;;;10.60;99.90;;;;;;4993176;28;20454;-54
2023/04/01 02:39:47;;;;;;;4.72;2.35;;;10.60;99.90;;;;;;5008820;28;20026;-56
2023/04/01 02:42:33;;;;;;;4.80;2.47;;;10.60;99.90;;;;;;4995542;28;20025;-55
2023/04/01 02:45:20;;;;;;;4.47;2.25;;;10.60;99.90;;;;;;5009624;28;20165;-56
2023/04/01 02:48:06;;;;;;;7.05;2.42;;;10.60;99.90;;;;;;5011641;28;20526;-54
2023/04/01 02:50:52;;;;;;;4.90;2.42;;;10.60;99.90;;;;;;5010649;28;20058;-57
2023/04/01 02:53:38;;;;;;;3.85;2.15;;;10.60;99.90;;;;;;5009307;28;20545;-54
2023/04/01 02:56:24;;;;;;;5.25;2.30;;;10.60;99.90;;;;;;5008549;28;20763;-54
2023/04/01 02:59:09;;;;;;;9.18;3.03;;;10.60;99.90;;;;;;5010057;28;20034;-57
2023/04/01 03:01:55;;;;;;;6.72;2.60;;;10.60;99.90;;;;;;5010675;28;20030;-54
2023/04/01 03:04:41;;;;;;;5.90;2.70;;;10.70;99.90;;;;;;5009696;28;20034;-54
2023/04/01 03:07:28;;;;;;;4.25;2.10;;;10.70;99.90;;;;;;5008827;28;20038;-56
2023/04/01 03:10:14;;;;;;;7.60;2.60;;;10.70;99.90;;;;;;5009431;28;20044;-52
2023/04/01 03:13:00;;;;;;;4.68;2.45;;;10.70;99.90;;;;;;4995766;28;20532;-55
2023/04/01 03:15:47;;;;;;;7.10;4.05;;;10.70;99.90;;;;;;5009226;28;20406;-56
2023/04/01 03:18:33;;;;;;;6.20;2.90;;;10.70;99.90;;;;;;5009498;28;20034;-57
2023/04/01 03:21:22;;;;;;;7.00;2.63;;;10.80;99.90;;;;;;5011081;28;20404;-55
2023/04/01 03:24:08;;;;;;;4.72;2.50;;;10.70;99.90;;;;;;5013881;28;20455;-52
2023/04/01 03:26:54;;;;;;;6.60;3.40;;;10.70;99.90;;;;;;5000441;28;20065;-54
2023/04/01 03:29:40;;;;;;;3.80;2.08;;;10.70;99.90;;;;;;5015842;28;20033;-56
2023/04/01 03:32:27;;;;;;;5.95;2.80;;;10.70;99.90;;;;;;5012888;28;20022;-57
2023/04/01 03:35:13;;;;;;;5.13;2.95;;;10.70;99.90;;;;;;5012283;28;20034;-57
2023/04/01 03:37:58;;;;;;;5.57;2.28;;;10.70;99.90;;;;;;5014733;28;20022;-55
2023/04/01 03:40:45;;;;;;;4.43;2.47;;;10.70;99.90;;;;;;5015415;28;20525;-56
2023/04/01 03:43:31;;;;;;;4.50;2.40;;;10.70;99.90;;;;;;5012205;28;20510;-59
2023/04/01 03:46:18;;;;;;;6.70;2.65;;;10.70;99.90;;;;;;5012829;28;20037;-56
2023/04/01 03:49:11;;;;;;;5.88;2.40;;;10.60;99.90;;;;;;4999760;28;20026;-53
2023/04/01 03:51:57;;;;;;;6.88;2.40;;;10.70;99.90;;;;;;5012769;28;20029;-58
2023/04/01 03:54:43;;;;;;;5.13;2.38;;;10.70;99.90;;;;;;5012859;28;20029;-56
2023/04/01 03:57:31;;;;;;;16.27;10.57;;;10.70;99.90;;;;;;5013310;28;20026;-53
2023/04/01 04:00:17;;;;;;;12.90;6.22;;;10.70;99.90;;;;;;5012090;28;20713;-54
2023/04/01 04:03:03;;;;;;;6.13;3.90;;;10.70;99.90;;;;;;5012176;28;20041;-54
2023/04/01 04:05:49;;;;;;;4.70;2.50;;;10.60;99.90;;;;;;5002853;28;20088;-53
2023/04/01 04:08:35;;;;;;;3.95;2.45;;;10.60;99.90;;;;;;5013431;28;20498;-55
2023/04/01 04:11:22;;;;;;;4.35;2.45;;;10.70;99.90;;;;;;5011674;28;20115;-52
2023/04/01 04:14:08;;;;;;;9.40;3.20;;;10.70;99.90;;;;;;5012806;28;20030;-56
2023/04/01 04:16:54;;;;;;;5.40;2.40;;;10.70;99.90;;;;;;5013703;28;20395;-54
2023/04/01 04:19:40;;;;;;;5.68;2.70;;;10.70;99.90;;;;;;4999624;28;20499;-52
2023/04/01 04:22:26;;;;;;;3.67;2.50;;;10.60;99.90;;;;;;5011763;28;20704;-54
2023/04/01 04:25:12;;;;;;;5.38;2.72;;;10.60;99.90;;;;;;5031417;28;20079;-55
2023/04/01 04:27:58;;;;;;;12.15;8.85;;;10.70;99.90;;;;;;5032152;28;20028;-53
2023/04/01 04:30:44;;;;;;;5.70;3.25;;;10.70;99.90;;;;;;5015526;28;20113;-53
2023/04/01 04:33:30;;;;;;;3.60;2.50;;;10.70;99.90;;;;;;5011908;28;20101;-51
2023/04/01 04:36:17;;;;;;;5.30;2.55;;;10.60;99.90;;;;;;5011206;28;20526;-56
2023/04/01 04:39:03;;;;;;;3.83;2.35;;;10.60;99.90;;;;;;5005715;28;20494;-52
2023/04/01 04:41:49;;;;;;;6.78;2.40;;;10.60;99.90;;;;;;5013567;28;20114;-52
2023/04/01 04:44:35;;;;;;;4.63;2.75;;;10.60;99.90;;;;;;5012413;28;20030;-56
2023/04/01 04:47:21;;;;;;;6.72;2.60;;;10.60;99.90;;;;;;5012430;28;20410;-54
2023/04/01 04:50:08;;;;;;;4.22;2.42;;;10.70;99.90;;;;;;5012426;28;20037;-52
2023/04/01 04:52:54;;;;;;;6.18;3.10;;;10.60;99.90;;;;;;5011801;28;20030;-51
2023/04/01 04:55:45;;;;;;;5.18;2.60;;;10.60;99.90;;;;;;4993634;28;20450;-53
2023/04/01 04:58:31;;;;;;;4.82;2.10;;;10.60;99.90;;;;;;4983444;28;20056;-53
2023/04/01 05:01:17;;;;;;;5.32;2.75;;;10.60;99.90;;;;;;5012008;28;20042;-54
2023/04/01 05:04:03;;;;;;;4.78;2.63;;;10.60;99.90;;;;;;5012023;28;20030;-53
2023/04/01 05:06:49;;;;;;;3.83;2.28;;;10.60;99.90;;;;;;5012900;28;20029;-55
2023/04/01 05:09:35;;;;;;;5.40;2.88;;;10.50;99.90;;;;;;5012273;28;20080;-56
2023/04/01 05:12:21;;;;;;;4.35;3.08;;;10.60;99.90;;;;;;5011688;28;20018;-56
2023/04/01 05:15:07;;;;;;;6.45;3.40;;;10.60;99.90;;;;;;4992656;28;20094;-55
2023/04/01 05:17:53;;;;;;;6.70;2.50;;;10.60;99.90;;;;;;4996370;28;20124;-51
2023/04/01 05:20:39;;;;;;;3.17;2.13;;;10.60;99.90;;;;;;5011965;28;20061;-55
2023/04/01 05:23:25;;;;;;;5.65;2.42;;;10.60;99.90;;;;;;5011418;28;20034;-53
2023/04/01 05:26:13;;;;;;;4.97;2.53;;;10.60;99.90;;;;;;5012878;28;20084;-51
2023/04/01 05:28:59;;;;;;;5.35;2.45;;;10.50;99.90;;;;;;5012226;28;20026;-53
2023/04/01 05:31:45;;;;;;;3.42;2.47;;;10.50;99.90;;;;;;5011160;28;20036;-56
2023/04/01 05:34:31;;;;;;;5.18;2.60;;;10.50;99.90;;;;;;4992718;28;20494;-54
2023/04/01 05:37:17;;;;;;;7.80;2.67;;;10.40;99.90;;;;;;4995603;28;20087;-54
2023/04/01 05:40:04;;;;;;;7.28;4.05;;;10.50;99.90;;;;;;4997061;28;20581;-55
2023/04/01 05:42:50;;;;;;;5.53;2.65;;;10.50;99.90;;;;;;5010572;28;20658;-58
2023/04/01 05:45:36;;;;;;;5.72;2.60;;;10.50;99.90;;;;;;5011077;28;20514;-51
2023/04/01 05:48:22;;;;;;;4.68;2.63;;;10.60;99.90;;;;;;5011811;28;20495;-56
2023/04/01 05:51:13;;;;;;;4.75;2.53;;;10.50;99.90;;;;;;5011277;28;20037;-52
2023/04/01 05:53:59;;;;;;;3.72;2.30;;;10.50;99.90;;;;;;5010083;28;20045;-54
2023/04/01 05:56:45;;;;;;;4.25;2.42;;;10.60;99.90;;;;;;4991036;28;20442;-59
2023/04/01 05:59:32;;;;;;;3.92;2.38;;;10.60;99.90;;;;;;5008844;28;20034;-53
2023/04/01 06:02:18;;;;;;;4.97;2.85;;;10.70;99.90;;;;;;5009580;28;20037;-53
2023/04/01 06:05:18;;;;;;;4.90;2.60;;;10.70;99.90;;;;;;5006370;28;20055;-56
2023/04/01 06:08:14;;;;;;;5.78;2.55;;;10.70;99.90;;;;;;4991989;28;20041;-58
2023/04/01 06:11:30;;;;;;;4.47;2.40;;;10.80;99.90;;;;;;5004333;28;20054;-53
2023/04/01 06:14:39;;;;;;;6.10;2.45;;;10.80;99.90;;;;;;5010210;28;20047;-54
2023/04/01 06:18:10;;;;;;;5.00;2.47;;;10.80;99.90;;;;;;5010980;28;20030;-58
2023/04/01 06:21:08;;;;;;;4.82;2.50;;;10.80;99.90;;;;;;5008614;28;20445;-53
2023/04/01 06:24:15;;;;;;;9.77;6.32;;;10.90;99.90;;;;;;5010293;28;20567;-53
2023/04/01 06:27:01;;;;;;;6.13;3.63;;;11.00;99.90;;;;;;5010270;28;20029;-55
2023/04/01 06:29:55;;;;;;;4.50;2.63;;;11.00;99.90;;;;;;5010342;28;20018;-52
2023/04/01 06:33:04;;;;;;;5.25;2.63;;;11.10;99.90;;;;;;5009577;28;20026;-56
2023/04/01 06:36:11;;;;;;;5.03;2.70;;;11.10;99.90;;;;;;4993068;28;20026;-55
2023/04/01 06:39:17;;;;;;;5.05;2.33;;;11.00;99.90;;;;;;5011419;28;20067;-55
2023/04/01 06:42:24;;;;;;;7.18;3.25;;;11.20;99.90;;;;;;5009782;28;20026;-55
2023/04/01 06:45:37;;;;;;;6.32;3.15;;;11.10;99.90;;;;;;5007736;28;20034;-56
2023/04/01 06:48:45;;;;;;;4.63;3.10;;;11.10;99.90;;;;;;5009701;28;20029;-53
2023/04/01 06:51:42;;;;;;;4.63;3.10;;;11.10;99.90;;;;;;5008996;28;20080;-53
2023/04/01 06:54:37;;;;;;;5.53;2.70;;;11.00;99.90;;;;;;5009893;28;20065;-55
2023/04/01 06:57:46;;;;;;;4.20;2.47;;;11.10;99.90;;;;;;4990764;28;20062;-55
2023/04/01 07:00:36;;;;;;;14.82;3.22;;;11.10;99.90;;;;;;5004341;28;20062;-56
2023/04/01 07:03:33;;;;;;;6.97;3.28;;;11.00;99.90;;;;;;5009125;28;20018;-56
2023/04/01 07:06:28;;;;;;;6.25;2.45;;;11.00;99.90;;;;;;5008417;28;20037;-53
2023/04/01 07:09:19;;;;;;;8.80;3.60;;;11.00;99.90;;;;;;5008929;28;20026;-54
2023/04/01 07:12:25;;;;;;;5.78;2.97;;;10.90;99.90;;;;;;5010960;28;20352;-53
2023/04/01 07:15:25;;;;;;;11.77;3.25;;;10.90;99.90;;;;;;5009103;28;20446;-55
2023/04/01 07:18:17;;;;;;;10.77;3.08;;;10.90;99.90;;;;;;5011314;28;20048;-53
2023/04/01 07:21:09;;;;;;;4.57;2.33;;;10.90;99.90;;;;;;5009258;28;20100;-53
2023/04/01 07:24:00;;;;;;;10.00;3.80;;;10.90;99.90;;;;;;5010686;28;20109;-56
2023/04/01 07:26:49;;;;;;;8.23;3.08;;;10.90;99.90;;;;;;5011058;28;20026;-57
2023/04/01 07:29:35;;;;;;;5.70;2.85;;;10.90;99.90;;;;;;5010364;28;20401;-55
2023/04/01 07:32:33;;;;;;;2.88;1.95;;;11.00;99.90;;;;;;5007944;28;20117;-57
2023/04/01 07:35:47;;;;;;;5.07;3.40;;;11.00;99.90;;;;;;5009954;28;20029;-53
2023/04/01 07:39:00;;;;;;;6.15;3.50;;;11.10;99.90;;;;;;5008874;28;20108;-57
2023/04/01 07:42:04;;;;;;;3.92;2.05;;;11.10;99.90;;;;;;5011301;28;20028;-57
2023/04/01 07:45:21;;;;;;;3.28;1.75;;;11.20;99.90;;;;;;5005030;28;20084;-57
2023/04/01 07:48:14;;;;;;;4.30;2.10;;;11.20;99.90;;;;;;5008194;28;20037;-53
2023/04/01 07:51:21;;;;;;;3.70;2.00;;;11.20;99.90;;;;;;5003665;28;20485;-55
2023/04/01 07:54:19;;;;;;;5.70;2.30;;;11.20;99.90;;;;;;5002268;28;20099;-50
2023/04/01 07:57:16;;;;;;;5.22;1.88;;;11.20;99.90;;;;;;5008857;28;20025;-51
2023/04/01 08:00:14;;;;;;;3.97;2.30;;;11.30;99.90;;;;;;5010070;28;20462;-54
2023/04/01 08:03:15;;;;;;;3.88;1.98;;;11.30;99.90;;;;;;5007700;28;20109;-55
2023/04/01 08:06:19;;;;;;;3.28;2.08;;;11.20;99.90;;;;;;5008384;28;20422;-57
2023/04/01 08:09:19;;;;;;;4.45;2.30;;;11.30;99.90;;;;;;5012777;28;20037;-60
2023/04/01 08:12:33;;;;;;;6.43;2.30;;;11.20;99.90;;;;;;5018120;28;20104;-64
2023/04/01 08:15:48;;;;;;;4.53;2.20;;;11.20;99.90;;;;;;5009065;28;20385;-56
2023/04/01 08:18:51;;;;;;;4.28;2.30;;;11.30;99.90;;;;;;5003685;28;20032;-55
2023/04/01 08:21:45;;;;;;;3.67;2.03;;;11.40;99.90;;;;;;5002464;28;20021;-58
2023/04/01 08:24:46;;;;;;;5.20;2.43;;;11.50;99.90;;;;;;4995036;28;20030;-59
2023/04/01 08:27:41;;;;;;;5.93;2.35;;;11.40;99.90;;;;;;5006097;28;20350;-52
2023/04/01 08:30:56;;;;;;;5.25;2.20;;;11.50;99.90;;;;;;4997623;28;20034;-58
2023/04/01 08:33:46;;;;;;;2.63;1.85;;;11.60;99.90;;;;;;5014754;28;20026;-56
2023/04/01 08:36:36;;;;;;;5.65;2.90;;;11.80;99.90;;;;;;4995318;28;20026;-58
2023/04/01 08:39:31;;;;;;;2.95;2.00;;;11.90;99.90;;;;;;4997483;28;20040;-53
2023/04/01 08:42:38;;;;;;;5.30;2.55;;;12.00;99.90;;;;;;5010873;28;20038;-56
2023/04/01 08:45:45;;;;;;;2.90;2.40;;;12.10;99.90;;;;;;5011399;28;20601;-53
2023/04/01 08:48:46;;;;;;;5.85;2.47;;;12.20;99.90;;;;;;5012253;28;20036;-58
2023/04/01 08:51:44;;;;;;;6.60;2.80;;;12.30;99.90;;;;;;4998913;28;20406;-49
2023/04/01 08:54:42;;;;;;;2.65;2.00;;;12.40;99.90;;;;;;4993717;28;20026;-56
2023/04/01 08:57:52;;;;;;;5.82;2.40;;;12.40;99.90;;;;;;4992785;28;20053;-57
2023/04/01 09:01:17;;;;;;;4.75;2.40;;;12.40;99.90;;;;;;5005936;28;20501;-57
2023/04/01 09:04:37;;;;;;;4.22;2.20;;;12.30;99.90;;;;;;5009862;28;20073;-57
2023/04/01 09:07:55;;;;;;;3.72;2.05;;;12.30;99.90;;;;;;4997869;28;20030;-55
2023/04/01 09:11:01;;;;;;;4.25;1.98;;;12.30;99.90;;;;;;4995658;28;20096;-58
2023/04/01 09:14:10;;;;;;;3.15;2.08;;;12.30;99.90;;;;;;5008224;28;20118;-55
2023/04/01 09:17:20;;;;;;;2.83;1.85;;;12.40;99.90;;;;;;5004933;28;20038;-55
2023/04/01 09:20:31;;;;;;;3.15;1.92;;;12.60;99.90;;;;;;5004962;28;20026;-57
2023/04/01 09:23:42;;;;;;;4.93;1.85;;;12.60;99.90;;;;;;5003951;28;20031;-54
2023/04/01 09:26:48;;;;;;;4.90;1.80;;;12.80;99.90;;;;;;5013020;28;20418;-52
2023/04/01 09:29:50;;;;;;;2.33;1.92;;;12.70;99.90;;;;;;5013314;28;20030;-53
2023/04/01 09:32:57;;;;;;;4.22;1.90;;;12.80;99.90;;;;;;5015634;28;20121;-55
2023/04/01 09:36:10;;;;;;;2.70;1.83;;;12.70;99.90;;;;;;4996918;28;20031;-54
2023/04/01 09:39:23;;;;;;;3.45;1.90;;;12.80;99.90;;;;;;5004742;28;20498;-56
2023/04/01 09:42:30;;;;;;;3.03;1.70;;;12.90;99.90;;;;;;5033790;28;20026;-54
2023/04/01 09:45:34;;;;;;;2.65;1.60;;;13.20;99.90;;;;;;5009291;28;20399;-55
2023/04/01 09:48:41;;;;;;;2.50;1.55;;;13.10;99.90;;;;;;4984067;28;20101;-51
2023/04/01 09:51:36;;;;;;;1.88;1.33;;;13.00;99.90;;;;;;4993550;28;20026;-51
2023/04/01 09:54:59;;;;;;;1.55;1.40;;;13.00;99.90;;;;;;5011684;28;20014;-51
2023/04/01 09:58:16;;;;;;;2.80;1.77;;;12.90;99.90;;;;;;5013157;28;20053;-49
2023/04/01 10:01:47;;;;;;;1.95;1.63;;;12.80;99.90;;;;;;4997159;28;20041;-49
2023/04/01 10:05:00;;;;;;;2.42;1.38;;;12.80;99.90;;;;;;5011086;28;20034;-52
2023/04/01 10:08:01;;;;;;;1.88;1.77;;;12.90;99.90;;;;;;5010990;28;20022;-54
2023/04/01 10:10:57;;;;;;;3.25;2.00;;;13.10;99.90;;;;;;5004897;28;20077;-50
2023/04/01 10:14:10;;;;;;;2.70;1.70;;;13.10;99.90;;;;;;5026394;28;20389;-52
2023/04/01 10:17:15;;;;;;;3.10;1.58;;;13.20;99.90;;;;;;4992412;28;20026;-51
2023/04/01 10:20:31;;;;;;;4.80;2.00;;;13.30;99.90;;;;;;5006902;28;20068;-47
2023/04/01 10:23:48;;;;;;;3.90;1.70;;;13.30;99.90;;;;;;5007233;28;20061;-50
2023/04/01 10:26:52;;;;;;;3.75;1.65;;;13.30;99.90;;;;;;5002928;28;20033;-48
2023/04/01 10:29:58;;;;;;;3.40;1.67;;;13.40;99.90;;;;;;5003428;28;20050;-50
2023/04/01 10:33:19;;;;;;;2.17;1.42;;;13.40;99.90;;;;;;5005507;28;20033;-52
2023/04/01 10:36:23;;;;;;;2.17;1.63;;;13.40;99.90;;;;;;4978183;28;20023;-53
2023/04/01 10:39:39;;;;;;;4.68;1.70;;;13.50;99.90;;;;;;4991925;28;20046;-50
2023/04/01 10:42:50;;;;;;;3.45;1.80;;;13.60;99.90;;;;;;5002367;28;20118;-51
2023/04/01 10:46:10;;;;;;;2.53;1.92;;;13.50;99.90;;;;;;5009471;28;20084;-51
2023/04/01 10:49:17;;;;;;;2.13;1.50;;;13.00;99.90;;;;;;4999385;28;20494;-52
2023/04/01 10:52:12;;;;;;;5.13;1.52;;;12.80;99.90;;;;;;5010036;28;20385;-53
2023/04/01 10:55:26;;;;;;;2.40;1.67;;;12.80;99.90;;;;;;5009952;28;20038;-53
2023/04/01 10:58:42;;;;;;;2.67;1.50;;;12.70;99.90;;;;;;5005116;28;20027;-49
2023/04/01 11:01:55;;;;;;;3.05;1.60;;;12.40;99.90;;;;;;5007752;28;20030;-50
2023/04/01 11:05:05;;;;;;;3.47;2.15;;;12.20;99.90;;;;;;4993640;28;20104;-49
2023/04/01 11:08:13;;;;;;;5.80;1.80;;;12.20;99.90;;;;;;5011196;28;20117;-50
2023/04/01 11:11:29;;;;;;;2.67;1.80;;;12.40;99.90;;;;;;5010278;28;20105;-50
2023/04/01 11:14:35;;;;;;;1.52;1.42;;;12.60;99.90;;;;;;5009115;28;20514;-63
2023/04/01 11:17:36;;;;;;;3.08;1.88;;;12.70;99.90;;;;;;4995654;28;20410;-53
2023/04/01 11:21:05;;;;;;;3.80;1.85;;;12.90;99.90;;;;;;5004594;28;20045;-62
2023/04/01 11:24:11;;;;;;;1.80;1.55;;;13.10;99.90;;;;;;5028084;28;20029;-63
2023/04/01 11:27:00;;;;;;;;;;;13.20;99.90;;;;;;5003574;28;20033;-49
2023/04/01 11:30:04;;;;;;;2.90;1.85;;;13.10;99.90;;;;;;5010720;28;19909;-53
2023/04/01 11:33:04;;;;;;;2.17;1.88;;;13.10;99.90;;;;;;5008739;28;20117;-53
2023/04/01 11:36:07;;;;;;;1.88;1.65;;;13.40;99.90;;;;;;5009422;28;20037;-53
2023/04/01 11:39:21;;;;;;;1.88;1.65;;;13.60;99.90;;;;;;4998237;28;20570;-53
2023/04/01 11:42:44;;;;;;;4.50;1.85;;;13.50;99.90;;;;;;5000780;28;20033;-53
2023/04/01 11:45:45;;;;;;;3.65;1.75;;;13.30;99.90;;;;;;5013066;28;20096;-57
2023/04/01 11:48:55;;;;;;;4.72;1.77;;;13.30;99.90;;;;;;5013328;28;20109;-50
2023/04/01 11:52:11;;;;;;;2.40;1.35;;;13.30;99.90;;;;;;4996771;28;20077;-54
2023/04/01 11:55:04;;;;;;;2.88;1.50;;;13.10;99.90;;;;;;5003852;28;20030;-50
2023/04/01 11:58:09;;;;;;;2.42;1.92;;;13.00;99.90;;;;;;5011620;28;20034;-52
2023/04/01 12:01:03;;;;;;;1.97;1.67;;;13.20;99.90;;;;;;5012227;28;20037;-51
2023/04/01 12:04:11;;;;;;;1.77;1.67;;;13.30;99.90;;;;;;5005721;28;20652;-49
2023/04/01 12:07:21;;;;;;;1.70;1.60;;;13.50;99.90;;;;;;5014022;28;20036;-50
2023/04/01 12:10:28;;;;;;;2.50;1.70;;;13.60;99.90;;;;;;5013353;28;20025;-55
2023/04/01 12:13:18;;;;;;;2.60;1.33;;;13.70;99.90;;;;;;5005500;28;20549;-51
2023/04/01 12:16:41;;;;;;;1.90;1.52;;;13.70;99.90;;;;;;5011480;28;20094;-51
2023/04/01 12:19:33;;;;;;;2.05;1.45;;;13.60;99.90;;;;;;5012999;28;20033;-49
2023/04/01 12:22:26;;;;;;;2.38;1.67;;;13.50;99.90;;;;;;5013580;28;20069;-51
2023/04/01 12:25:41;;;;;;;2.03;1.65;;;13.50;99.90;;;;;;5014490;28;20105;-54
2023/04/01 12:28:47;;;;;;;2.00;1.70;;;13.40;99.90;;;;;;5011825;28;20022;-52
2023/04/01 12:31:57;;;;;;;2.30;1.80;;;13.50;99.90;;;;;;5011475;28;20337;-52
2023/04/01 12:35:02;;;;;;;2.80;1.60;;;13.50;99.90;;;;;;5010563;28;20021;-53
2023/04/01 12:38:13;;;;;;;2.53;1.80;;;13.50;99.90;;;;;;5013866;28;20032;-51
2023/04/01 12:41:18;;;;;;;2.70;1.80;;;13.50;99.90;;;;;;5011434;28;20042;-48
2023/04/01 12:44:27;;;;;;;4.30;2.30;;;13.50;99.90;;;;;;5012281;28;20060;-47
2023/04/01 12:47:25;;;;;;;2.45;2.05;;;13.60;99.90;;;;;;4987602;28;20030;-56
2023/04/01 12:50:40;;;;;;;1.17;1.17;;;13.60;99.90;;;;;;5011701;28;20117;-52
2023/04/01 12:53:43;;;;;;;2.63;1.88;;;13.50;99.90;;;;;;5010291;28;20022;-50
2023/04/01 12:56:50;;;;;;;1.98;1.73;;;13.50;99.90;;;;;;5012651;28;20018;-56
2023/04/01 13:00:01;;;;;;;2.17;1.58;;;13.50;99.90;;;;;;5010335;28;20057;-50
2023/04/01 13:03:06;;;;;;;3.05;1.95;;;13.30;99.90;;;;;;5006227;28;20022;-53
2023/04/01 13:06:01;;;;;;;1.98;1.77;;;13.00;99.90;;;;;;5005371;28;20375;-58
2023/04/01 13:08:58;;;;;;;2.83;1.70;;;12.80;99.90;;;;;;5003258;28;20093;-55
2023/04/01 13:12:07;;;;;;;1.85;1.55;;;12.70;99.90;;;;;;5024780;28;20517;-58
2023/04/01 13:14:59;;;;;;;3.03;2.38;;;12.60;99.90;;;;;;5014267;28;20110;-54
2023/04/01 13:18:16;;;;;;;2.05;1.85;;;12.50;99.90;;;;;;5010265;28;20026;-55
2023/04/01 13:21:28;;;;;;;1.63;1.52;;;12.30;99.90;;;;;;5013804;28;20502;-57
2023/04/01 13:24:20;;;;;;;2.72;2.10;;;12.30;99.90;;;;;;4993289;28;20034;-56
2023/04/01 13:27:16;;;;;;;2.20;1.80;;;12.30;99.90;;;;;;4982281;28;20417;-57
2023/04/01 13:30:31;;;;;;;3.33;2.00;;;12.30;99.90;;;;;;4997704;28;20026;-56
2023/04/01 13:33:30;;;;;;;3.90;3.50;;;12.30;99.90;;;;;;5013220;28;20079;-51
2023/04/01 13:36:49;;;;;;;14.10;9.85;;;12.50;99.90;;;;;;5009304;28;20076;-53
2023/04/01 13:40:15;;;;;;;4.55;3.58;;;12.60;99.90;;;;;;5011737;28;20049;-54
2023/04/01 13:43:24;;;;;;;2.33;2.00;;;12.70;99.90;;;;;;5011594;28;20502;-56
2023/04/01 13:46:36;;;;;;;2.22;1.60;;;12.80;99.90;;;;;;5007846;28;20537;-55
2023/04/01 13:49:56;;;;;;;1.92;1.80;;;13.00;99.90;;;;;;5007810;28;20129;-53
2023/04/01 13:53:02;;;;;;;1.67;1.58;;;13.00;99.90;;;;;;5014039;28;20144;-55
2023/04/01 13:55:58;;;;;;;3.15;1.90;;;13.00;99.90;;;;;;5015041;28;20410;-53
2023/04/01 13:58:55;;;;;;;2.40;1.90;;;13.00;99.90;;;;;;5012421;28;20025;-56
2023/04/01 14:01:47;;;;;;;2.10;1.90;;;13.10;99.90;;;;;;5015671;28;20103;-57
2023/04/01 14:04:35;;;;;;;1.95;1.83;;;13.10;99.90;;;;;;4997453;28;20451;-51
2023/04/01 14:07:42;;;;;;;3.28;2.03;;;13.20;99.90;;;;;;5010383;28;20101;-55
2023/04/01 14:10:35;;;;;;;2.00;1.90;;;13.40;99.90;;;;;;5008531;28;20037;-56
2023/04/01 14:13:37;;;;;;;2.83;2.42;;;13.60;99.90;;;;;;5012313;28;20041;-50
2023/04/01 14:16:55;;;;;;;3.00;2.10;;;13.70;99.90;;;;;;5030788;28;20029;-49
2023/04/01 14:20:09;;;;;;;3.80;2.10;;;13.80;99.90;;;;;;4995351;28;20034;-49
2023/04/01 14:23:20;;;;;;;5.47;2.75;;;13.90;99.90;;;;;;5007915;28;20463;-48
2023/04/01 14:26:27;;;;;;;3.05;2.60;;;13.70;99.90;;;;;;4980988;28;20530;-49
2023/04/01 14:29:31;;;;;;;3.38;2.67;;;13.60;99.90;;;;;;4997692;28;20026;-50
2023/04/01 14:32:34;;;;;;;3.63;2.95;;;13.50;99.90;;;;;;5015278;28;20022;-49
2023/04/01 14:35:50;;;;;;;3.25;2.53;;;13.40;99.90;;;;;;5017351;28;20441;-51
2023/04/01 14:39:03;;;;;;;3.28;2.80;;;13.40;99.90;;;;;;5022861;28;20398;-53
2023/04/01 14:42:05;;;;;;;6.00;3.90;;;13.40;99.90;;;;;;5000395;28;20364;-50
2023/04/01 14:45:10;;;;;;;26.98;16.23;;;13.40;99.90;;;;;;5009888;28;20467;-51
2023/04/01 14:48:17;;;;;;;10.83;6.23;;;13.40;99.90;;;;;;5008179;28;20097;-56
2023/04/01 14:51:26;;;;;;;5.75;3.58;;;13.30;99.90;;;;;;4991912;28;20038;-48
2023/04/01 14:54:24;;;;;;;6.03;3.05;;;13.30;99.90;;;;;;5010056;28;20034;-51
2023/04/01 14:57:25;;;;;;;9.02;6.30;;;13.30;99.90;;;;;;5009891;28;20040;-52
2023/04/01 15:00:17;;;;;;;9.57;6.32;;;13.30;99.90;;;;;;5010149;28;20080;-49
2023/04/01 15:03:33;;;;;;;6.35;4.60;;;13.30;99.90;;;;;;5001978;28;20503;-48
2023/04/01 15:06:24;;;;;;;6.80;5.47;;;13.20;99.90;;;;;;4987755;28;20101;-50
2023/04/01 15:09:39;;;;;;;4.63;4.10;;;13.20;99.90;;;;;;5021818;28;20197;-49
2023/04/01 15:13:00;;;;;;;3.90;2.92;;;13.20;99.90;;;;;;5010294;28;20022;-49
2023/04/01 15:16:17;;;;;;;3.28;2.85;;;13.20;99.90;;;;;;4996807;28;20062;-49
2023/04/01 15:19:06;;;;;;;3.00;2.60;;;13.10;99.90;;;;;;4993063;28;20061;-54
2023/04/01 15:22:31;;;;;;;3.63;3.00;;;13.20;99.90;;;;;;5012186;28;20015;-53
2023/04/01 15:25:52;;;;;;;3.80;2.70;;;13.30;99.90;;;;;;5012744;28;20022;-57
2023/04/01 15:28:53;;;;;;;3.10;2.50;;;13.20;99.90;;;;;;5011946;28;20459;-58